Anta, Peru
Current Conditions -  °F | °C
As of 11:00 PM on Thursday 18 Dec 2014 (Local Time) from SPRU Reporting Station
Scattered Clouds Scattered Clouds  
Wind Chill: 66°   Ceiling: Unl
Heat Index: 66°   Visibility: 5mi
Dew Point: 61°   Wind: 6mph
Humidity: 83%   Direction: 130°SE
Pressure: 29.94"   Gusts: NA
Location:  9.35°S, 77.6°W
Report Text: SPRU 190400Z 13005KT 8000 FEW030 SCT150 19/16 Q1014 RMK PP000
Loading
Personal Weather Stations






























Interactive Weather Map New forecast layout! Learn more

10-Day Weather Forecast

Advertisements
Track Severe Weather on mobile